createdAt,value
2017-09-03T00:00:11.138Z,14.99
2017-09-03T00:01:20.103Z,14.98
2017-09-03T00:02:29.111Z,15.03
2017-09-03T00:03:38.002Z,15.03
2017-09-03T00:04:46.906Z,15.09
2017-09-03T00:05:55.740Z,15.06
2017-09-03T00:07:04.570Z,15.1
2017-09-03T00:08:13.396Z,15.09
2017-09-03T00:09:22.221Z,15.03
2017-09-03T00:10:31.056Z,15.06
2017-09-03T00:11:39.885Z,15.02
2017-09-03T00:12:48.975Z,15.02
2017-09-03T00:13:57.930Z,15.06
2017-09-03T00:15:07.182Z,15.06
2017-09-03T00:16:16.074Z,15.06
2017-09-03T00:17:24.956Z,15.06
2017-09-03T00:18:33.924Z,14.98
2017-09-03T00:19:43.284Z,15.02
2017-09-03T00:20:52.159Z,15.01
2017-09-03T00:22:00.989Z,15.02
2017-09-03T00:23:10.038Z,14.99
2017-09-03T00:24:19.312Z,15.01
2017-09-03T00:25:28.584Z,14.95
2017-09-03T00:26:37.426Z,14.99
2017-09-03T00:27:46.341Z,15.02
2017-09-03T00:28:55.190Z,14.91
2017-09-03T00:30:04.162Z,15.09
2017-09-03T00:31:12.990Z,15.01
2017-09-03T00:32:21.880Z,15.01
2017-09-03T00:33:31.171Z,14.96
2017-09-03T00:34:40.003Z,14.96
2017-09-03T00:35:48.887Z,15.02
2017-09-03T00:36:57.712Z,15.02
2017-09-03T00:38:06.540Z,14.92
2017-09-03T00:39:15.369Z,14.92
2017-09-03T00:40:24.198Z,14.95
2017-09-03T00:41:33.027Z,14.89
2017-09-03T00:42:42.185Z,14.81
2017-09-03T00:43:51.015Z,14.81
2017-09-03T00:44:59.841Z,14.92
2017-09-03T00:46:08.669Z,14.89
2017-09-03T00:47:17.514Z,14.8
2017-09-03T00:48:26.327Z,14.86
2017-09-03T00:49:35.158Z,14.89
2017-09-03T00:50:43.987Z,14.88
2017-09-03T00:51:52.818Z,14.81
2017-09-03T00:53:01.641Z,14.8
2017-09-03T00:54:10.474Z,14.84
2017-09-03T00:55:19.304Z,14.84
2017-09-03T00:56:28.131Z,14.81
2017-09-03T00:57:36.960Z,14.84
2017-09-03T00:58:45.810Z,14.8
2017-09-03T00:59:54.618Z,14.8
2017-09-03T01:01:03.448Z,14.72
2017-09-03T01:02:12.276Z,14.75
2017-09-03T01:03:21.106Z,14.8
2017-09-03T01:04:29.933Z,14.78
2017-09-03T01:05:38.762Z,14.72
2017-09-03T01:06:47.582Z,14.72
2017-09-03T01:07:56.413Z,14.81
2017-09-03T01:09:05.244Z,14.86
2017-09-03T01:10:14.070Z,14.72
2017-09-03T01:11:22.897Z,14.83
2017-09-03T01:12:31.730Z,14.81
2017-09-03T01:13:40.556Z,14.72
2017-09-03T01:14:49.381Z,14.77
2017-09-03T01:15:58.212Z,14.69
2017-09-03T01:17:07.038Z,14.72
2017-09-03T01:18:15.859Z,14.73
2017-09-03T01:19:24.689Z,14.73
2017-09-03T01:20:33.514Z,14.61
2017-09-03T01:21:42.347Z,14.62
2017-09-03T01:22:51.175Z,14.7
2017-09-03T01:24:00.000Z,14.72
2017-09-03T01:25:08.826Z,14.6
2017-09-03T01:26:17.654Z,14.68
2017-09-03T01:27:26.480Z,14.58
2017-09-03T01:28:35.641Z,14.61
2017-09-03T01:29:44.468Z,14.65
2017-09-03T01:30:53.297Z,14.65
2017-09-03T01:32:02.448Z,14.61
2017-09-03T01:33:11.279Z,14.65
2017-09-03T01:34:20.100Z,14.65
2017-09-03T01:35:28.932Z,14.61
2017-09-03T01:36:37.766Z,14.55
2017-09-03T01:37:46.591Z,14.64
2017-09-03T01:38:55.414Z,14.65
2017-09-03T01:40:04.243Z,14.65
2017-09-03T01:41:13.393Z,14.64
2017-09-03T01:42:22.224Z,14.68
2017-09-03T01:43:31.053Z,14.64
2017-09-03T01:44:39.879Z,14.52
2017-09-03T01:45:48.702Z,14.61
2017-09-03T01:46:57.535Z,14.64
2017-09-03T01:48:06.360Z,14.58
2017-09-03T01:49:15.191Z,14.58
2017-09-03T01:50:24.017Z,14.51
2017-09-03T01:51:32.843Z,14.52
2017-09-03T01:52:41.667Z,14.6
2017-09-03T01:53:50.500Z,14.55
2017-09-03T01:54:59.329Z,14.58
2017-09-03T01:56:08.154Z,14.46
2017-09-03T01:57:16.984Z,14.52
2017-09-03T01:58:25.812Z,14.55
2017-09-03T01:59:34.637Z,14.61
2017-09-03T02:00:43.471Z,14.55
2017-09-03T02:01:52.297Z,14.61
2017-09-03T02:03:01.124Z,14.47
2017-09-03T02:04:09.950Z,14.5
2017-09-03T02:05:18.780Z,14.46
2017-09-03T02:06:27.612Z,14.42
2017-09-03T02:07:36.442Z,14.47
2017-09-03T02:08:45.268Z,14.52
2017-09-03T02:09:54.094Z,14.47
2017-09-03T02:11:02.930Z,14.51
2017-09-03T02:12:11.756Z,14.5
2017-09-03T02:13:20.584Z,14.45
2017-09-03T02:14:29.410Z,14.55
2017-09-03T02:15:38.238Z,14.43
2017-09-03T02:16:47.069Z,14.51
2017-09-03T02:17:55.899Z,14.4
2017-09-03T02:19:04.727Z,14.42
2017-09-03T02:20:13.550Z,14.43
2017-09-03T02:21:22.380Z,14.4
2017-09-03T02:22:31.205Z,14.42
2017-09-03T02:23:40.037Z,14.46
2017-09-03T02:24:48.863Z,14.47
2017-09-03T02:25:57.690Z,14.43
2017-09-03T02:27:06.518Z,14.46
2017-09-03T02:28:15.349Z,14.46
2017-09-03T02:29:24.179Z,14.42
2017-09-03T02:30:33.008Z,14.42
2017-09-03T02:31:41.833Z,14.5
2017-09-03T02:32:50.666Z,14.4
2017-09-03T02:33:59.493Z,14.36
2017-09-03T02:35:08.320Z,14.37
2017-09-03T02:36:17.151Z,14.32
2017-09-03T02:37:25.978Z,14.36
2017-09-03T02:38:34.813Z,14.43
2017-09-03T02:39:43.639Z,14.39
2017-09-03T02:40:52.468Z,14.39
2017-09-03T02:42:01.294Z,14.27
2017-09-03T02:43:10.128Z,14.32
2017-09-03T02:44:18.951Z,14.28
2017-09-03T02:45:27.781Z,14.33
2017-09-03T02:46:36.930Z,14.32
2017-09-03T02:47:45.752Z,14.33
2017-09-03T02:48:54.578Z,14.29
2017-09-03T02:50:03.412Z,14.22
2017-09-03T02:51:12.237Z,14.25
2017-09-03T02:52:21.065Z,14.24
2017-09-03T02:53:29.891Z,14.27
2017-09-03T02:54:38.717Z,14.28
2017-09-03T02:55:47.547Z,14.33
2017-09-03T02:56:56.379Z,14.25
2017-09-03T02:58:05.208Z,14.21
2017-09-03T02:59:14.033Z,14.25
2017-09-03T03:00:22.864Z,14.29
2017-09-03T03:01:31.719Z,14.28
2017-09-03T03:02:40.519Z,14.21
2017-09-03T03:03:49.347Z,14.22
2017-09-03T03:04:58.175Z,14.25
2017-09-03T03:06:07.006Z,14.17
2017-09-03T03:07:15.833Z,14.27
2017-09-03T03:08:24.669Z,14.2
2017-09-03T03:09:33.494Z,14.2
2017-09-03T03:10:42.322Z,14.1
2017-09-03T03:11:51.151Z,14.17
2017-09-03T03:13:00.030Z,14.17
2017-09-03T03:14:08.860Z,14.15
2017-09-03T03:15:17.679Z,14.15
2017-09-03T03:16:26.507Z,14.17
2017-09-03T03:17:35.327Z,14.1
2017-09-03T03:18:44.158Z,14.1
2017-09-03T03:19:52.992Z,14.12
2017-09-03T03:21:01.815Z,14.1
2017-09-03T03:22:10.643Z,14.1
2017-09-03T03:23:19.471Z,14.02
2017-09-03T03:24:28.293Z,14.03
2017-09-03T03:25:37.124Z,14.03
2017-09-03T03:26:45.954Z,14.15
2017-09-03T03:27:55.111Z,14.1
2017-09-03T03:29:03.932Z,14.03
2017-09-03T03:30:13.082Z,14.06
2017-09-03T03:31:21.910Z,13.97
2017-09-03T03:32:30.740Z,13.99
2017-09-03T03:33:39.574Z,14
2017-09-03T03:34:48.397Z,14.04
2017-09-03T03:35:57.224Z,14.07
2017-09-03T03:37:06.053Z,14.02
2017-09-03T03:38:14.882Z,14.02
2017-09-03T03:39:23.706Z,14.02
2017-09-03T03:40:32.537Z,13.95
2017-09-03T03:41:41.361Z,13.99
2017-09-03T03:42:50.186Z,13.89
2017-09-03T03:43:59.016Z,14.03
2017-09-03T03:45:08.176Z,13.92
2017-09-03T03:46:16.999Z,13.92
2017-09-03T03:47:26.147Z,13.99
2017-09-03T03:48:34.970Z,13.89
2017-09-03T03:49:43.798Z,13.88
2017-09-03T03:50:52.630Z,13.97
2017-09-03T03:52:01.457Z,13.95
2017-09-03T03:53:10.284Z,13.91
2017-09-03T03:54:19.110Z,13.96
2017-09-03T03:55:27.930Z,13.89
2017-09-03T03:56:36.759Z,13.85
2017-09-03T03:57:45.589Z,13.84
2017-09-03T03:58:54.415Z,13.82
2017-09-03T04:00:03.256Z,13.84
2017-09-03T04:01:12.418Z,13.84
2017-09-03T04:02:21.242Z,13.82
2017-09-03T04:03:30.397Z,13.87
2017-09-03T04:04:39.227Z,13.88
2017-09-03T04:05:48.057Z,13.82
2017-09-03T04:06:56.883Z,13.82
2017-09-03T04:08:05.708Z,13.85
2017-09-03T04:09:14.534Z,13.78
2017-09-03T04:10:23.363Z,13.81
2017-09-03T04:11:32.189Z,13.81
2017-09-03T04:12:41.013Z,13.73
2017-09-03T04:13:49.843Z,13.87
2017-09-03T04:14:58.675Z,13.77
2017-09-03T04:16:07.821Z,13.85
2017-09-03T04:17:16.645Z,13.81
2017-09-03T04:18:25.472Z,13.84
2017-09-03T04:19:34.627Z,13.78
2017-09-03T04:20:43.777Z,13.73
2017-09-03T04:21:52.604Z,13.78
2017-09-03T04:23:01.434Z,13.78
2017-09-03T04:24:10.258Z,13.78
2017-09-03T04:25:19.082Z,13.75
2017-09-03T04:26:27.909Z,13.81
2017-09-03T04:27:36.739Z,13.71
2017-09-03T04:28:45.569Z,13.75
2017-09-03T04:29:54.390Z,13.7
2017-09-03T04:31:03.217Z,13.71
2017-09-03T04:32:12.040Z,13.69
2017-09-03T04:33:20.865Z,13.69
2017-09-03T04:34:29.689Z,13.75
2017-09-03T04:35:38.521Z,13.67
2017-09-03T04:36:47.347Z,13.7
2017-09-03T04:37:56.179Z,13.71
2017-09-03T04:39:05.001Z,13.71
2017-09-03T04:40:13.826Z,13.73
2017-09-03T04:41:22.659Z,13.67
2017-09-03T04:42:31.488Z,13.66
2017-09-03T04:43:40.312Z,13.77
2017-09-03T04:44:49.141Z,13.69
2017-09-03T04:45:57.973Z,13.73
2017-09-03T04:47:06.793Z,13.71
2017-09-03T04:48:15.622Z,13.75
2017-09-03T04:49:24.449Z,13.73
2017-09-03T04:50:33.270Z,13.78
2017-09-03T04:51:42.100Z,13.78
2017-09-03T04:52:51.254Z,13.77
2017-09-03T04:54:00.084Z,13.77
2017-09-03T04:55:08.912Z,13.79
2017-09-03T04:56:17.742Z,13.73
2017-09-03T04:57:26.892Z,13.73
2017-09-03T04:58:35.717Z,13.75
2017-09-03T04:59:44.555Z,13.77
2017-09-03T05:00:53.381Z,13.81
2017-09-03T05:02:02.211Z,13.81
2017-09-03T05:03:11.040Z,13.81
2017-09-03T05:04:19.955Z,13.73
2017-09-03T05:05:28.886Z,13.81
2017-09-03T05:06:37.783Z,13.77
2017-09-03T05:07:46.982Z,13.77
2017-09-03T05:08:55.816Z,13.81
2017-09-03T05:10:05.115Z,13.82
2017-09-03T05:11:14.239Z,13.82
2017-09-03T05:12:23.305Z,13.87
2017-09-03T05:13:32.171Z,13.82
2017-09-03T05:14:41.056Z,13.84
2017-09-03T05:15:49.959Z,13.82
2017-09-03T05:16:58.854Z,13.81
2017-09-03T05:18:07.758Z,13.82
2017-09-03T05:19:16.688Z,13.82
2017-09-03T05:20:25.637Z,13.87
2017-09-03T05:21:34.559Z,13.89
2017-09-03T05:22:43.524Z,13.95
2017-09-03T05:23:52.871Z,13.87
2017-09-03T05:25:02.008Z,13.87
2017-09-03T05:26:11.500Z,13.96
2017-09-03T05:27:20.330Z,13.99
2017-09-03T05:28:29.217Z,13.89
2017-09-03T05:29:38.334Z,14
2017-09-03T05:30:47.164Z,14.03
2017-09-03T05:31:56.057Z,13.99
2017-09-03T05:33:04.887Z,13.95
2017-09-03T05:34:13.784Z,13.99
2017-09-03T05:35:22.610Z,13.99
2017-09-03T05:36:31.496Z,13.96
2017-09-03T05:37:40.413Z,13.91
2017-09-03T05:38:49.312Z,13.99
2017-09-03T05:39:58.162Z,13.97
2017-09-03T05:41:06.994Z,14
2017-09-03T05:42:16.002Z,13.97
2017-09-03T05:43:24.905Z,13.99
2017-09-03T05:44:33.878Z,14
2017-09-03T05:45:42.700Z,14.06
2017-09-03T05:46:51.592Z,13.99
2017-09-03T05:48:00.442Z,13.96
2017-09-03T05:49:09.335Z,14
2017-09-03T05:50:18.197Z,14.07
2017-09-03T05:51:27.029Z,14.06
2017-09-03T05:52:35.930Z,14.1
2017-09-03T05:53:44.754Z,14.07
2017-09-03T05:54:53.753Z,14.04
2017-09-03T05:56:02.580Z,14.09
2017-09-03T05:57:11.536Z,14.24
2017-09-03T05:58:20.363Z,14.25
2017-09-03T05:59:29.334Z,14.18
2017-09-03T06:00:38.552Z,14.25
2017-09-03T06:01:47.782Z,14.21
2017-09-03T06:02:56.711Z,14.21
2017-09-03T06:04:05.630Z,14.21
2017-09-03T06:05:14.510Z,14.2
2017-09-03T06:06:23.605Z,14.18
2017-09-03T06:07:33.509Z,14.21
2017-09-03T06:08:42.405Z,14.25
2017-09-03T06:09:51.286Z,14.27
2017-09-03T06:11:00.112Z,14.32
2017-09-03T06:12:08.977Z,14.28
2017-09-03T06:13:18.136Z,14.36
2017-09-03T06:14:26.973Z,14.39
2017-09-03T06:15:36.464Z,14.39
2017-09-03T06:16:45.291Z,14.45
2017-09-03T06:17:54.114Z,14.37
2017-09-03T06:19:02.944Z,14.43
2017-09-03T06:20:11.772Z,14.45
2017-09-03T06:21:20.603Z,14.39
2017-09-03T06:22:29.428Z,14.47
2017-09-03T06:23:38.255Z,14.43
2017-09-03T06:24:47.087Z,14.57
2017-09-03T06:25:55.918Z,14.52
2017-09-03T06:27:04.746Z,14.52
2017-09-03T06:28:13.576Z,14.47
2017-09-03T06:29:22.404Z,14.47
2017-09-03T06:30:31.234Z,14.5
2017-09-03T06:31:40.065Z,14.62
2017-09-03T06:32:48.894Z,14.68
2017-09-03T06:33:57.721Z,14.61
2017-09-03T06:35:06.560Z,14.65
2017-09-03T06:36:15.390Z,14.65
2017-09-03T06:37:24.219Z,14.58
2017-09-03T06:38:33.050Z,14.65
2017-09-03T06:39:41.878Z,14.6
2017-09-03T06:40:51.041Z,14.65
2017-09-03T06:41:59.866Z,14.73
2017-09-03T06:43:08.700Z,14.81
2017-09-03T06:44:17.520Z,14.72
2017-09-03T06:45:26.353Z,14.84
2017-09-03T06:46:35.193Z,14.8
2017-09-03T06:47:44.021Z,14.94
2017-09-03T06:48:52.850Z,14.94
2017-09-03T06:50:02.006Z,15.01
2017-09-03T06:51:10.831Z,15.01
2017-09-03T06:52:19.657Z,15.07
2017-09-03T06:53:28.534Z,15.01
2017-09-03T06:54:37.379Z,15.03
2017-09-03T06:55:46.203Z,15.03
2017-09-03T06:56:55.048Z,15.17
2017-09-03T06:58:03.868Z,15.16
2017-09-03T06:59:12.722Z,15.2
2017-09-03T07:00:21.568Z,15.16
2017-09-03T07:01:31.167Z,15.2
2017-09-03T07:02:41.114Z,15.28
2017-09-03T07:03:51.043Z,15.32
2017-09-03T07:05:00.372Z,15.38
2017-09-03T07:06:09.204Z,15.35
2017-09-03T07:07:18.039Z,15.38
2017-09-03T07:08:26.981Z,15.35
2017-09-03T07:09:36.087Z,15.49
2017-09-03T07:10:45.010Z,15.49
2017-09-03T07:11:54.461Z,15.49
2017-09-03T07:13:03.519Z,15.57
2017-09-03T07:14:12.365Z,15.56
2017-09-03T07:15:21.386Z,15.56
2017-09-03T10:31:27.389Z,18.85
2017-09-03T10:32:36.296Z,18.7
2017-09-03T10:33:45.509Z,18.45
2017-09-03T10:34:54.349Z,18.32
2017-09-03T10:36:03.236Z,18.15
2017-09-03T10:37:12.076Z,17.82
2017-09-03T10:38:20.925Z,17.77
2017-09-03T10:39:29.799Z,17.56
2017-09-03T10:40:38.701Z,17.21
2017-09-03T10:41:47.575Z,17.08
2017-09-03T10:42:56.487Z,16.89
2017-09-03T10:44:05.357Z,16.88
2017-09-03T10:45:14.390Z,16.78
2017-09-03T10:46:24.166Z,16.81
2017-09-03T10:47:33.037Z,16.83
2017-09-03T10:48:41.916Z,16.81
2017-09-03T10:49:50.845Z,16.81
2017-09-03T10:50:59.740Z,16.76
2017-09-03T10:52:08.637Z,16.81
2017-09-03T10:53:17.608Z,16.81
2017-09-03T10:54:26.594Z,16.81
2017-09-03T10:55:35.830Z,16.86
2017-09-03T10:56:44.703Z,16.88
2017-09-03T10:57:53.704Z,16.79
2017-09-03T10:59:02.583Z,16.88
2017-09-03T11:00:11.428Z,16.86
2017-09-03T11:01:20.261Z,16.85
2017-09-03T11:02:29.092Z,16.86
2017-09-03T11:03:37.923Z,16.86
2017-09-03T11:04:46.751Z,16.89
2017-09-03T11:05:55.585Z,16.89
2017-09-03T11:07:04.409Z,16.89
2017-09-03T11:08:13.245Z,17
2017-09-03T11:09:22.404Z,17
2017-09-03T11:10:31.232Z,16.96
2017-09-03T11:11:40.061Z,17.01
2017-09-03T11:12:48.892Z,17.08
2017-09-03T11:13:57.719Z,17.19
2017-09-03T11:15:06.550Z,17.15
2017-09-03T11:16:15.501Z,17.14
2017-09-03T11:17:24.328Z,17.18
2017-09-03T11:18:33.226Z,17.31
2017-09-03T11:19:42.177Z,17.36
2017-09-03T11:20:51.072Z,17.41
2017-09-03T11:21:59.936Z,17.44
2017-09-03T11:23:08.764Z,17.41
2017-09-03T11:24:18.006Z,17.44
2017-09-03T11:25:26.918Z,17.44
2017-09-03T11:26:35.814Z,17.44
2017-09-03T11:27:45.043Z,17.43
2017-09-03T11:28:54.211Z,17.3
2017-09-03T11:30:03.099Z,17.31
2017-09-03T11:31:11.929Z,17.23
2017-09-03T11:32:20.872Z,17.14
2017-09-03T11:33:29.751Z,17.11
2017-09-03T11:34:38.578Z,17.08
2017-09-03T11:35:47.517Z,17.14
2017-09-03T11:36:56.677Z,17.16
2017-09-03T11:38:05.609Z,17.23
2017-09-03T11:39:14.446Z,17.31
2017-09-03T11:40:23.364Z,17.28
2017-09-03T11:41:32.196Z,17.33
2017-09-03T11:42:41.100Z,17.4
2017-09-03T11:43:50.266Z,17.4
2017-09-03T11:44:59.448Z,17.37
2017-09-03T11:46:08.330Z,17.36
2017-09-03T11:47:17.247Z,17.36
2017-09-03T11:48:26.149Z,17.43
2017-09-03T11:49:35.024Z,17.33
2017-09-03T11:50:43.859Z,17.22
2017-09-03T11:51:52.728Z,17.23
2017-09-03T11:53:01.613Z,17.19
2017-09-03T11:54:10.770Z,17.15
2017-09-03T11:55:19.638Z,17.19
2017-09-03T11:56:28.981Z,17.28
2017-09-03T11:57:38.229Z,17.12
2017-09-03T11:58:47.433Z,17.08
2017-09-03T11:59:56.260Z,17.19
2017-09-03T12:01:05.097Z,17.22
2017-09-03T12:02:13.924Z,17.21
2017-09-03T12:03:22.754Z,17.12
2017-09-03T12:04:31.593Z,17.07
2017-09-03T12:05:40.422Z,16.98
2017-09-03T12:06:49.248Z,16.91
2017-09-03T12:07:58.119Z,16.93
2017-09-03T12:09:06.954Z,16.89
2017-09-03T12:10:15.782Z,16.86
2017-09-03T12:11:24.610Z,16.88
2017-09-03T12:12:33.438Z,16.86
2017-09-03T12:13:42.270Z,16.94
2017-09-03T12:14:51.105Z,17.11
2017-09-03T12:15:59.934Z,17.11
2017-09-03T12:17:08.761Z,17.15
2017-09-03T12:18:17.596Z,17.12
2017-09-03T12:19:26.423Z,17.22
2017-09-03T12:20:35.252Z,17.3
2017-09-03T12:21:44.085Z,17.3
2017-09-03T12:22:52.914Z,17.3
2017-09-03T12:24:01.741Z,17.41
2017-09-03T12:25:10.573Z,17.36
2017-09-03T12:26:19.409Z,17.41
2017-09-03T12:27:28.239Z,17.28
2017-09-03T12:28:37.075Z,17.22
2017-09-03T12:29:45.909Z,17.21
2017-09-03T12:30:54.740Z,17.14
2017-09-03T12:32:03.571Z,17.15
2017-09-03T12:33:12.401Z,17.15
2017-09-03T12:34:21.238Z,17.15
2017-09-03T12:35:30.067Z,17.14
2017-09-03T12:36:38.904Z,17.11
2017-09-03T12:37:47.737Z,17.16
2017-09-03T12:38:56.571Z,17.11
2017-09-03T12:40:05.400Z,17.11
2017-09-03T12:41:14.291Z,17
2017-09-03T12:42:23.398Z,16.88
2017-09-03T12:43:32.225Z,16.96
2017-09-03T12:44:41.057Z,16.97
2017-09-03T12:45:49.896Z,16.89
2017-09-03T12:46:58.725Z,16.91
2017-09-03T12:48:07.560Z,16.93
2017-09-03T12:49:16.394Z,16.96
2017-09-03T12:50:25.229Z,16.85
2017-09-03T12:51:34.062Z,16.89
2017-09-03T12:52:42.905Z,16.83
2017-09-03T12:53:51.730Z,16.88
2017-09-03T12:55:00.730Z,16.91
2017-09-03T12:56:09.953Z,16.81
2017-09-03T12:57:18.784Z,16.86
2017-09-03T12:58:27.622Z,16.79
2017-09-03T12:59:36.451Z,16.78
2017-09-03T13:00:45.279Z,16.76
2017-09-03T13:01:54.110Z,16.73
2017-09-03T13:03:02.943Z,16.73
2017-09-03T13:04:11.774Z,16.7
2017-09-03T13:05:20.685Z,16.7
2017-09-03T13:06:29.573Z,16.73
2017-09-03T13:07:38.449Z,16.79
2017-09-03T13:08:47.431Z,16.83
2017-09-03T13:09:56.317Z,16.86
2017-09-03T13:11:05.148Z,16.96
2017-09-03T13:12:14.298Z,16.96
2017-09-03T13:13:23.183Z,17.07
2017-09-03T13:14:32.014Z,17.12
2017-09-03T13:15:40.920Z,17.16
2017-09-03T13:16:49.875Z,17.15
2017-09-03T13:17:58.698Z,17.19
2017-09-03T13:19:07.629Z,17.15
2017-09-03T13:20:16.469Z,17.25
2017-09-03T13:21:25.478Z,17.21
2017-09-03T13:22:34.418Z,17.23
2017-09-03T13:23:43.481Z,17.3
2017-09-03T13:24:52.391Z,17.36
2017-09-03T13:26:01.345Z,17.41
2017-09-03T13:27:10.503Z,17.43
2017-09-03T13:28:19.399Z,17.48
2017-09-03T13:29:28.334Z,17.43
2017-09-03T13:30:37.170Z,17.46
2017-09-03T13:31:46.138Z,17.38
2017-09-03T13:32:54.967Z,17.4
2017-09-03T13:34:03.924Z,17.4
2017-09-03T13:35:12.749Z,17.4
2017-09-03T13:36:21.646Z,17.43
2017-09-03T13:37:30.525Z,17.49
2017-09-03T13:38:39.462Z,17.55
2017-09-03T13:39:48.601Z,17.51
2017-09-03T13:40:57.497Z,17.56
2017-09-03T13:42:06.356Z,17.58
2017-09-03T13:43:15.289Z,17.63
2017-09-03T13:44:24.118Z,17.58
2017-09-03T13:45:33.025Z,17.52
2017-09-03T13:46:41.853Z,17.54
2017-09-03T13:47:51.060Z,17.48
2017-09-03T13:49:00.148Z,17.55
2017-09-03T13:50:08.976Z,17.62
2017-09-03T13:51:18.197Z,17.64
2017-09-03T13:52:27.250Z,17.64
2017-09-03T13:53:36.078Z,17.7
2017-09-03T13:54:44.907Z,17.68
2017-09-03T13:55:53.740Z,17.72
2017-09-03T13:57:02.574Z,17.74
2017-09-03T13:58:11.465Z,17.75
2017-09-03T13:59:20.342Z,17.79
2017-09-03T14:00:29.165Z,17.86
2017-09-03T14:01:38.186Z,17.86
2017-09-03T14:02:47.010Z,17.87
2017-09-03T14:03:56.034Z,17.84
2017-09-03T14:05:04.867Z,17.86
2017-09-03T14:06:13.859Z,17.84
2017-09-03T14:07:22.754Z,17.84
2017-09-03T14:08:31.622Z,17.77
2017-09-03T14:09:40.487Z,17.87
2017-09-03T14:10:49.315Z,17.9
2017-09-03T14:11:58.218Z,17.79
2017-09-03T14:13:07.048Z,17.74
2017-09-03T14:14:15.942Z,17.79
2017-09-03T14:15:24.773Z,17.79
2017-09-03T14:16:33.648Z,17.78
2017-09-03T14:17:42.481Z,17.84
2017-09-03T14:18:51.352Z,17.84
2017-09-03T14:20:00.194Z,17.87
2017-09-03T14:21:09.025Z,17.87
2017-09-03T14:22:18.199Z,17.75
2017-09-03T14:23:27.030Z,17.81
2017-09-03T14:24:35.972Z,17.79
2017-09-03T14:25:44.805Z,17.89
2017-09-03T14:26:53.740Z,17.81
2017-09-03T14:28:02.567Z,17.87
2017-09-03T14:29:11.435Z,17.84
2017-09-03T14:30:20.309Z,17.87
2017-09-03T14:31:29.141Z,17.84
2017-09-03T14:32:38.357Z,17.92
2017-09-03T14:33:47.257Z,17.95
2017-09-03T14:34:56.533Z,17.96
2017-09-03T14:36:05.697Z,17.9
2017-09-03T14:37:14.582Z,17.95
2017-09-03T14:38:24.452Z,17.97
2017-09-03T14:39:34.036Z,18.07
2017-09-03T14:40:43.094Z,18.08
2017-09-03T14:41:51.927Z,17.99
2017-09-03T14:43:00.760Z,18
2017-09-03T14:44:09.785Z,18.14
2017-09-03T14:45:18.627Z,18.11
2017-09-03T14:46:27.466Z,18.12
2017-09-03T14:47:36.300Z,18.17
2017-09-03T14:48:45.499Z,18.11
2017-09-03T14:49:54.596Z,18.11
2017-09-03T14:51:03.430Z,18.18
2017-09-03T14:52:12.274Z,18.12
2017-09-03T14:53:21.103Z,18.12
2017-09-03T14:54:29.932Z,18.07
2017-09-03T14:55:38.761Z,18.1
2017-09-03T14:56:47.769Z,18.02
2017-09-03T14:57:56.598Z,18.02
2017-09-03T14:59:05.716Z,18.02
2017-09-03T15:00:14.544Z,18.05
2017-09-03T15:01:23.768Z,17.96
2017-09-03T15:02:32.598Z,17.95
2017-09-03T15:03:41.429Z,18.02
2017-09-03T15:04:50.271Z,17.96
2017-09-03T15:05:59.242Z,17.95
2017-09-03T15:07:08.423Z,18
2017-09-03T15:08:17.618Z,17.9
2017-09-03T15:09:26.615Z,17.84
2017-09-03T15:10:35.727Z,17.87
2017-09-03T15:11:44.627Z,17.82
2017-09-03T15:12:53.536Z,17.92
2017-09-03T15:14:02.408Z,18
2017-09-03T15:15:11.386Z,17.97
2017-09-03T15:16:20.626Z,18.03
2017-09-03T15:17:29.483Z,18
2017-09-03T15:18:38.360Z,18.08
2017-09-03T15:19:47.224Z,18.14
2017-09-03T15:20:56.061Z,18.15
2017-09-03T15:22:04.946Z,18.15
2017-09-03T15:23:14.132Z,18.17
2017-09-03T15:24:23.372Z,18.08
2017-09-03T15:25:32.246Z,18.08
2017-09-03T15:26:41.135Z,18.05
2017-09-03T15:27:50.024Z,18
2017-09-03T15:28:58.900Z,17.96
2017-09-03T15:30:07.827Z,17.99
2017-09-03T15:31:16.780Z,18.03
2017-09-03T15:32:25.615Z,18.05
2017-09-03T15:33:34.771Z,17.93
2017-09-03T15:34:43.645Z,17.97
2017-09-03T15:35:52.546Z,18.05
2017-09-03T15:37:01.407Z,17.93
2017-09-03T15:38:10.240Z,17.96
2017-09-03T15:39:19.394Z,17.9
2017-09-03T15:40:28.374Z,18.05
2017-09-03T15:41:37.350Z,17.99
2017-09-03T15:42:46.299Z,18.03
2017-09-03T15:43:55.196Z,18.03
2017-09-03T15:45:04.027Z,18.02
2017-09-03T15:46:12.960Z,17.97
2017-09-03T15:47:21.796Z,17.96
2017-09-03T15:48:30.622Z,17.96
2017-09-03T15:49:39.456Z,17.95
2017-09-03T15:50:48.291Z,18
2017-09-03T15:51:57.120Z,17.86
2017-09-03T15:53:06.099Z,17.89
2017-09-03T15:54:14.931Z,17.84
2017-09-03T15:55:24.088Z,17.95
2017-09-03T15:56:32.943Z,17.92
2017-09-03T15:57:41.755Z,17.93
2017-09-03T15:58:50.593Z,17.82
2017-09-03T15:59:59.424Z,17.96
2017-09-03T16:01:08.255Z,17.95
2017-09-03T16:02:17.085Z,18
2017-09-03T16:03:25.917Z,17.89
2017-09-03T16:04:34.752Z,17.95
2017-09-03T16:05:43.583Z,17.97
2017-09-03T16:06:52.434Z,17.9
2017-09-03T16:08:01.268Z,17.96
2017-09-03T16:09:10.109Z,17.95
2017-09-03T16:10:18.935Z,17.92
2017-09-03T16:11:27.762Z,17.95
2017-09-03T16:12:36.594Z,17.95
2017-09-03T16:13:45.749Z,17.99
2017-09-03T16:14:54.586Z,17.99
2017-09-03T16:16:03.416Z,17.95
2017-09-03T16:17:12.249Z,17.97
2017-09-03T16:18:21.079Z,17.97
2017-09-03T16:19:29.912Z,17.92
2017-09-03T16:20:39.071Z,17.87
2017-09-03T16:21:47.903Z,17.87
2017-09-03T16:22:56.731Z,17.81
2017-09-03T16:24:05.563Z,17.82
2017-09-03T16:25:14.715Z,17.75
2017-09-03T16:26:23.545Z,17.81
2017-09-03T16:27:32.376Z,17.79
2017-09-03T16:28:41.207Z,17.68
2017-09-03T16:29:50.043Z,17.75
2017-09-03T16:30:59.224Z,17.68
2017-09-03T16:32:08.053Z,17.71
2017-09-03T16:33:16.878Z,17.71
2017-09-03T16:34:25.710Z,17.55
2017-09-03T16:35:34.540Z,17.49
2017-09-03T16:36:43.380Z,17.51
2017-09-03T16:37:52.211Z,17.41
2017-09-03T16:39:01.037Z,17.44
2017-09-03T16:40:09.867Z,17.23
2017-09-03T16:41:18.808Z,17.19
2017-09-03T16:42:27.741Z,17.16
2017-09-03T16:43:36.598Z,17.16
2017-09-03T16:44:45.628Z,17.08
2017-09-03T16:45:54.537Z,16.97
2017-09-03T16:47:03.387Z,17
2017-09-03T16:48:12.252Z,16.98
2017-09-03T16:49:21.056Z,16.89
2017-09-03T16:50:29.887Z,16.88
2017-09-03T16:51:38.784Z,16.89
2017-09-03T16:52:47.617Z,16.91
2017-09-03T16:53:56.457Z,16.89
2017-09-03T16:55:05.471Z,16.88
2017-09-03T16:56:14.334Z,16.88
2017-09-03T16:57:23.162Z,16.83
2017-09-03T16:58:32.450Z,16.86
2017-09-03T16:59:41.284Z,16.88
2017-09-03T17:00:50.187Z,16.88
2017-09-03T17:01:59.106Z,16.83
2017-09-03T17:03:07.975Z,16.88
2017-09-03T17:04:16.818Z,16.83
2017-09-03T17:05:25.664Z,16.86
2017-09-03T17:06:34.524Z,16.85
2017-09-03T17:07:43.366Z,16.86
2017-09-03T17:08:52.213Z,16.83
2017-09-03T17:10:01.061Z,16.83
2017-09-03T17:11:09.910Z,16.79
2017-09-03T17:12:18.761Z,16.89
2017-09-03T17:13:27.608Z,16.85
2017-09-03T17:14:36.453Z,16.89
2017-09-03T17:15:45.317Z,16.89
2017-09-03T17:16:54.168Z,16.89
2017-09-03T17:18:03.010Z,16.91
2017-09-03T17:19:11.859Z,16.85
2017-09-03T17:20:20.710Z,16.94
2017-09-03T17:21:29.553Z,16.88
2017-09-03T17:22:38.403Z,16.98
2017-09-03T17:23:47.249Z,16.89
2017-09-03T17:24:56.116Z,16.89
2017-09-03T17:26:04.961Z,16.88
2017-09-03T17:27:13.804Z,16.91
2017-09-03T17:28:22.648Z,16.89
2017-09-03T17:29:31.820Z,16.91
2017-09-03T17:30:40.682Z,16.94
2017-09-03T17:31:49.538Z,16.89
2017-09-03T17:32:58.389Z,16.89
2017-09-03T17:34:07.233Z,16.89
2017-09-03T17:35:16.071Z,16.88
2017-09-03T17:36:24.920Z,16.82
2017-09-03T17:37:33.778Z,16.81
2017-09-03T17:38:42.623Z,16.88
2017-09-03T17:39:51.469Z,16.83
2017-09-03T17:41:00.324Z,16.86
2017-09-03T17:42:09.181Z,16.86
2017-09-03T17:43:18.034Z,16.81
2017-09-03T17:44:26.878Z,16.79
2017-09-03T17:45:35.724Z,16.78
2017-09-03T17:46:44.580Z,16.73
2017-09-03T17:47:53.430Z,16.75
2017-09-03T17:49:02.257Z,16.78
2017-09-03T17:50:11.094Z,16.81
2017-09-03T17:51:19.923Z,16.76
2017-09-03T17:52:29.077Z,16.79
2017-09-03T17:53:37.904Z,16.82
2017-09-03T17:54:46.741Z,16.81
2017-09-03T17:55:55.568Z,16.73
2017-09-03T17:57:04.403Z,16.73
2017-09-03T17:58:13.236Z,16.82
2017-09-03T17:59:22.065Z,16.81
2017-09-03T18:00:30.893Z,16.76
2017-09-03T18:01:39.730Z,16.81
2017-09-03T18:02:48.560Z,16.78
2017-09-03T18:03:57.719Z,16.85
2017-09-03T18:05:06.549Z,16.83